sensor_id;sensor_type;location;lat;lon;timestamp;pressure;altitude;pressure_sealevel;temperature;humidity
56992;BME280;42885;49.754;18.636;2022-09-09T00:04:41;97997.37;;;18.95;100.00
56992;BME280;42885;49.754;18.636;2022-09-09T00:07:34;98003.47;;;18.91;100.00
56992;BME280;42885;49.754;18.636;2022-09-09T00:10:26;97997.80;;;19.04;100.00
56992;BME280;42885;49.754;18.636;2022-09-09T00:15:57;97998.31;;;18.71;100.00
56992;BME280;42885;49.754;18.636;2022-09-09T00:18:50;97998.38;;;18.98;100.00
56992;BME280;42885;49.754;18.636;2022-09-09T00:24:04;97992.51;;;18.68;100.00
56992;BME280;42885;49.754;18.636;2022-09-09T00:26:39;97992.49;;;18.50;100.00
56992;BME280;42885;49.754;18.636;2022-09-09T00:29:24;97995.42;;;18.61;100.00
56992;BME280;42885;49.754;18.636;2022-09-09T00:32:00;98006.38;;;18.66;100.00
56992;BME280;42885;49.754;18.636;2022-09-09T00:34:33;98012.14;;;18.79;100.00
56992;BME280;42885;49.754;18.636;2022-09-09T00:37:04;98010.61;;;18.73;100.00
56992;BME280;42885;49.754;18.636;2022-09-09T00:39:42;98012.81;;;18.63;100.00
56992;BME280;42885;49.754;18.636;2022-09-09T00:42:25;98013.39;;;18.71;100.00
56992;BME280;42885;49.754;18.636;2022-09-09T00:45:01;98009.88;;;18.84;100.00
56992;BME280;42885;49.754;18.636;2022-09-09T00:47:39;98012.34;;;18.82;100.00
56992;BME280;42885;49.754;18.636;2022-09-09T00:50:17;98011.70;;;18.88;100.00
56992;BME280;42885;49.754;18.636;2022-09-09T00:58:35;98024.61;;;18.83;100.00
56992;BME280;42885;49.754;18.636;2022-09-09T01:01:13;98027.67;;;18.92;100.00
56992;BME280;42885;49.754;18.636;2022-09-09T01:03:52;98025.50;;;18.92;100.00
56992;BME280;42885;49.754;18.636;2022-09-09T01:06:35;98025.35;;;18.93;100.00
56992;BME280;42885;49.754;18.636;2022-09-09T01:14:52;98019.36;;;19.05;100.00
56992;BME280;42885;49.754;18.636;2022-09-09T01:17:30;98022.24;;;18.98;100.00
56992;BME280;42885;49.754;18.636;2022-09-09T01:28:46;98027.63;;;19.02;100.00
56992;BME280;42885;49.754;18.636;2022-09-09T01:31:39;98032.20;;;19.00;100.00
56992;BME280;42885;49.754;18.636;2022-09-09T01:34:13;98034.61;;;19.07;100.00
56992;BME280;42885;49.754;18.636;2022-09-09T01:39:23;98045.67;;;18.84;100.00
56992;BME280;42885;49.754;18.636;2022-09-09T01:41:56;98045.30;;;18.83;100.00
56992;BME280;42885;49.754;18.636;2022-09-09T01:44:28;98053.26;;;18.83;100.00
56992;BME280;42885;49.754;18.636;2022-09-09T01:47:00;98051.14;;;18.87;100.00
56992;BME280;42885;49.754;18.636;2022-09-09T01:49:32;98041.64;;;18.80;100.00
56992;BME280;42885;49.754;18.636;2022-09-09T01:52:05;98037.55;;;18.86;100.00
56992;BME280;42885;49.754;18.636;2022-09-09T01:54:40;98042.83;;;18.82;100.00
56992;BME280;42885;49.754;18.636;2022-09-09T01:57:23;98042.47;;;18.63;100.00
56992;BME280;42885;49.754;18.636;2022-09-09T02:00:02;98037.74;;;18.89;100.00
56992;BME280;42885;49.754;18.636;2022-09-09T02:05:39;98042.03;;;19.04;100.00
56992;BME280;42885;49.754;18.636;2022-09-09T02:11:12;98051.66;;;19.05;100.00
56992;BME280;42885;49.754;18.636;2022-09-09T02:13:46;98053.30;;;19.46;100.00
56992;BME280;42885;49.754;18.636;2022-09-09T02:16:33;98054.25;;;19.01;100.00
56992;BME280;42885;49.754;18.636;2022-09-09T02:19:19;98057.28;;;19.46;100.00
56992;BME280;42885;49.754;18.636;2022-09-09T02:21:55;98057.56;;;18.98;100.00
56992;BME280;42885;49.754;18.636;2022-09-09T02:24:30;98060.47;;;18.91;100.00
56992;BME280;42885;49.754;18.636;2022-09-09T02:27:11;98070.64;;;19.00;100.00
56992;BME280;42885;49.754;18.636;2022-09-09T02:29:43;98063.00;;;18.97;100.00
56992;BME280;42885;49.754;18.636;2022-09-09T02:32:22;98056.83;;;19.29;100.00
56992;BME280;42885;49.754;18.636;2022-09-09T02:34:59;98067.76;;;18.75;100.00
56992;BME280;42885;49.754;18.636;2022-09-09T02:37:33;98071.26;;;18.76;100.00
56992;BME280;42885;49.754;18.636;2022-09-09T02:40:06;98068.03;;;18.86;100.00
56992;BME280;42885;49.754;18.636;2022-09-09T02:42:41;98072.94;;;18.95;100.00
56992;BME280;42885;49.754;18.636;2022-09-09T02:45:24;98072.25;;;18.75;100.00
56992;BME280;42885;49.754;18.636;2022-09-09T02:50:55;98080.56;;;18.80;100.00
56992;BME280;42885;49.754;18.636;2022-09-09T02:53:39;98087.92;;;18.86;100.00
56992;BME280;42885;49.754;18.636;2022-09-09T02:56:19;98083.34;;;18.92;100.00
56992;BME280;42885;49.754;18.636;2022-09-09T02:58:51;98077.70;;;18.91;100.00
56992;BME280;42885;49.754;18.636;2022-09-09T03:01:22;98079.91;;;18.64;100.00
56992;BME280;42885;49.754;18.636;2022-09-09T03:03:53;98077.73;;;18.63;100.00
56992;BME280;42885;49.754;18.636;2022-09-09T03:06:24;98086.39;;;18.65;100.00
56992;BME280;42885;49.754;18.636;2022-09-09T03:08:58;98092.83;;;18.63;100.00
56992;BME280;42885;49.754;18.636;2022-09-09T03:11:31;98091.52;;;18.49;100.00
56992;BME280;42885;49.754;18.636;2022-09-09T03:14:02;98096.45;;;18.62;100.00
56992;BME280;42885;49.754;18.636;2022-09-09T03:16:34;98097.37;;;18.70;100.00
56992;BME280;42885;49.754;18.636;2022-09-09T03:19:06;98096.52;;;18.84;100.00
56992;BME280;42885;49.754;18.636;2022-09-09T03:21:37;98096.02;;;18.66;100.00
56992;BME280;42885;49.754;18.636;2022-09-09T03:24:08;98097.34;;;18.66;100.00
56992;BME280;42885;49.754;18.636;2022-09-09T03:26:41;98103.56;;;18.61;100.00
56992;BME280;42885;49.754;18.636;2022-09-09T03:29:14;98105.29;;;18.66;100.00
56992;BME280;42885;49.754;18.636;2022-09-09T03:31:46;98104.41;;;18.62;100.00
56992;BME280;42885;49.754;18.636;2022-09-09T03:34:17;98108.19;;;18.59;100.00
56992;BME280;42885;49.754;18.636;2022-09-09T03:36:48;98105.23;;;18.62;100.00
56992;BME280;42885;49.754;18.636;2022-09-09T03:39:20;98105.31;;;18.70;100.00
56992;BME280;42885;49.754;18.636;2022-09-09T03:41:51;98111.58;;;18.65;100.00
56992;BME280;42885;49.754;18.636;2022-09-09T03:44:23;98102.09;;;18.63;100.00
56992;BME280;42885;49.754;18.636;2022-09-09T03:46:54;98103.52;;;18.71;100.00
56992;BME280;42885;49.754;18.636;2022-09-09T03:49:25;98103.28;;;18.64;100.00
56992;BME280;42885;49.754;18.636;2022-09-09T03:51:58;98106.42;;;18.50;100.00
56992;BME280;42885;49.754;18.636;2022-09-09T03:54:32;98111.63;;;18.41;100.00
56992;BME280;42885;49.754;18.636;2022-09-09T03:57:03;98113.73;;;18.38;100.00
56992;BME280;42885;49.754;18.636;2022-09-09T03:59:34;98114.82;;;18.45;100.00
56992;BME280;42885;49.754;18.636;2022-09-09T04:02:06;98118.63;;;18.47;100.00
56992;BME280;42885;49.754;18.636;2022-09-09T04:04:36;98116.24;;;18.53;100.00
56992;BME280;42885;49.754;18.636;2022-09-09T04:07:07;98115.30;;;18.44;100.00
56992;BME280;42885;49.754;18.636;2022-09-09T04:09:38;98115.94;;;18.42;100.00
56992;BME280;42885;49.754;18.636;2022-09-09T04:12:09;98116.04;;;18.23;100.00
56992;BME280;42885;49.754;18.636;2022-09-09T04:14:42;98119.27;;;18.30;100.00
56992;BME280;42885;49.754;18.636;2022-09-09T04:17:12;98121.59;;;18.90;100.00
56992;BME280;42885;49.754;18.636;2022-09-09T04:19:44;98119.52;;;18.37;100.00
56992;BME280;42885;49.754;18.636;2022-09-09T04:22:15;98116.86;;;18.23;100.00
56992;BME280;42885;49.754;18.636;2022-09-09T04:24:46;98114.23;;;18.13;100.00
56992;BME280;42885;49.754;18.636;2022-09-09T04:27:17;98111.66;;;18.32;100.00
56992;BME280;42885;49.754;18.636;2022-09-09T04:29:48;98115.77;;;18.16;100.00
56992;BME280;42885;49.754;18.636;2022-09-09T04:32:19;98115.33;;;18.21;100.00
56992;BME280;42885;49.754;18.636;2022-09-09T04:34:50;98118.52;;;18.10;100.00
56992;BME280;42885;49.754;18.636;2022-09-09T04:37:22;98112.25;;;18.01;100.00
56992;BME280;42885;49.754;18.636;2022-09-09T04:39:54;98114.91;;;18.01;100.00
56992;BME280;42885;49.754;18.636;2022-09-09T04:42:25;98116.52;;;18.22;100.00
56992;BME280;42885;49.754;18.636;2022-09-09T04:44:57;98120.92;;;18.18;100.00
56992;BME280;42885;49.754;18.636;2022-09-09T04:47:28;98114.41;;;17.92;100.00
56992;BME280;42885;49.754;18.636;2022-09-09T04:49:59;98121.80;;;17.88;100.00
56992;BME280;42885;49.754;18.636;2022-09-09T04:52:30;98125.92;;;18.21;100.00
56992;BME280;42885;49.754;18.636;2022-09-09T04:55:05;98128.06;;;18.31;100.00
56992;BME280;42885;49.754;18.636;2022-09-09T04:57:37;98129.83;;;18.40;100.00
56992;BME280;42885;49.754;18.636;2022-09-09T05:00:08;98131.88;;;18.47;100.00
56992;BME280;42885;49.754;18.636;2022-09-09T05:02:40;98131.94;;;18.51;100.00
56992;BME280;42885;49.754;18.636;2022-09-09T05:05:11;98133.39;;;19.05;100.00
56992;BME280;42885;49.754;18.636;2022-09-09T05:07:42;98133.91;;;18.35;100.00
56992;BME280;42885;49.754;18.636;2022-09-09T05:10:14;98137.47;;;18.71;100.00
56992;BME280;42885;49.754;18.636;2022-09-09T05:12:54;98135.33;;;18.57;100.00
56992;BME280;42885;49.754;18.636;2022-09-09T05:15:27;98138.17;;;18.74;100.00
56992;BME280;42885;49.754;18.636;2022-09-09T05:17:59;98140.53;;;18.63;100.00
56992;BME280;42885;49.754;18.636;2022-09-09T05:20:31;98146.84;;;18.66;100.00
56992;BME280;42885;49.754;18.636;2022-09-09T05:23:02;98148.17;;;19.08;100.00
56992;BME280;42885;49.754;18.636;2022-09-09T05:25:33;98148.17;;;18.52;100.00
56992;BME280;42885;49.754;18.636;2022-09-09T05:28:04;98149.61;;;18.46;100.00
56992;BME280;42885;49.754;18.636;2022-09-09T05:30:37;98147.84;;;18.51;100.00
56992;BME280;42885;49.754;18.636;2022-09-09T05:33:08;98151.34;;;18.51;100.00
56992;BME280;42885;49.754;18.636;2022-09-09T05:35:39;98148.86;;;18.54;100.00
56992;BME280;42885;49.754;18.636;2022-09-09T05:38:10;98143.61;;;18.72;100.00
56992;BME280;42885;49.754;18.636;2022-09-09T05:40:49;98143.80;;;18.89;100.00
56992;BME280;42885;49.754;18.636;2022-09-09T05:43:22;98145.09;;;18.84;100.00
56992;BME280;42885;49.754;18.636;2022-09-09T05:46:19;98142.89;;;18.98;100.00
56992;BME280;42885;49.754;18.636;2022-09-09T05:48:52;98147.66;;;18.94;100.00
56992;BME280;42885;49.754;18.636;2022-09-09T05:51:26;98142.20;;;19.06;100.00
56992;BME280;42885;49.754;18.636;2022-09-09T05:54:00;98142.75;;;18.99;100.00
56992;BME280;42885;49.754;18.636;2022-09-09T05:56:32;98137.31;;;19.15;100.00
56992;BME280;42885;49.754;18.636;2022-09-09T05:59:03;98137.80;;;19.33;100.00
56992;BME280;42885;49.754;18.636;2022-09-09T06:01:37;98135.02;;;19.38;100.00
56992;BME280;42885;49.754;18.636;2022-09-09T06:04:11;98130.11;;;19.48;100.00
56992;BME280;42885;49.754;18.636;2022-09-09T06:06:42;98127.84;;;19.53;100.00
56992;BME280;42885;49.754;18.636;2022-09-09T06:09:15;98129.72;;;19.61;100.00
56992;BME280;42885;49.754;18.636;2022-09-09T06:11:46;98122.47;;;19.67;100.00
56992;BME280;42885;49.754;18.636;2022-09-09T06:14:17;98120.34;;;19.71;100.00
56992;BME280;42885;49.754;18.636;2022-09-09T06:16:50;98126.52;;;19.79;100.00
56992;BME280;42885;49.754;18.636;2022-09-09T06:19:22;98132.87;;;20.05;100.00
56992;BME280;42885;49.754;18.636;2022-09-09T06:21:57;98131.63;;;20.17;100.00
56992;BME280;42885;49.754;18.636;2022-09-09T06:24:29;98132.44;;;20.18;100.00
56992;BME280;42885;49.754;18.636;2022-09-09T06:27:01;98138.23;;;20.13;100.00
56992;BME280;42885;49.754;18.636;2022-09-09T06:29:34;98133.67;;;20.32;100.00
56992;BME280;42885;49.754;18.636;2022-09-09T06:32:05;98129.86;;;20.34;100.00
56992;BME280;42885;49.754;18.636;2022-09-09T06:34:38;98130.83;;;20.29;100.00
56992;BME280;42885;49.754;18.636;2022-09-09T06:37:13;98130.67;;;20.27;100.00
56992;BME280;42885;49.754;18.636;2022-09-09T06:39:46;98129.41;;;20.13;100.00
56992;BME280;42885;49.754;18.636;2022-09-09T06:42:18;98126.94;;;20.97;100.00
56992;BME280;42885;49.754;18.636;2022-09-09T06:44:54;98126.80;;;20.56;100.00
56992;BME280;42885;49.754;18.636;2022-09-09T06:47:34;98124.42;;;20.83;100.00
56992;BME280;42885;49.754;18.636;2022-09-09T06:50:05;98119.72;;;20.77;100.00
56992;BME280;42885;49.754;18.636;2022-09-09T06:52:37;98124.16;;;21.15;100.00
56992;BME280;42885;49.754;18.636;2022-09-09T06:55:08;98127.98;;;21.09;100.00
56992;BME280;42885;49.754;18.636;2022-09-09T06:57:39;98128.00;;;21.25;100.00
56992;BME280;42885;49.754;18.636;2022-09-09T07:00:18;98128.14;;;21.36;100.00
56992;BME280;42885;49.754;18.636;2022-09-09T07:02:51;98124.80;;;21.09;100.00
56992;BME280;42885;49.754;18.636;2022-09-09T07:05:22;98120.47;;;21.12;100.00
56992;BME280;42885;49.754;18.636;2022-09-09T07:07:54;98120.47;;;21.12;100.00
56992;BME280;42885;49.754;18.636;2022-09-09T07:10:26;98124.66;;;21.31;100.00
56992;BME280;42885;49.754;18.636;2022-09-09T07:12:57;98121.82;;;21.45;100.00
56992;BME280;42885;49.754;18.636;2022-09-09T07:15:30;98127.16;;;21.70;100.00
56992;BME280;42885;49.754;18.636;2022-09-09T07:18:02;98130.98;;;21.64;100.00
56992;BME280;42885;49.754;18.636;2022-09-09T07:20:32;98122.03;;;22.34;100.00
56992;BME280;42885;49.754;18.636;2022-09-09T07:23:04;98128.46;;;21.95;100.00
56992;BME280;42885;49.754;18.636;2022-09-09T07:25:35;98123.72;;;22.26;100.00
56992;BME280;42885;49.754;18.636;2022-09-09T07:28:06;98124.24;;;22.22;100.00
56992;BME280;42885;49.754;18.636;2022-09-09T07:30:38;98135.60;;;22.11;100.00
56992;BME280;42885;49.754;18.636;2022-09-09T07:33:09;98133.34;;;22.36;100.00
56992;BME280;42885;49.754;18.636;2022-09-09T07:35:40;98136.21;;;22.34;100.00
56992;BME280;42885;49.754;18.636;2022-09-09T07:38:12;98132.67;;;22.42;100.00
56992;BME280;42885;49.754;18.636;2022-09-09T07:40:44;98129.72;;;22.77;100.00
56992;BME280;42885;49.754;18.636;2022-09-09T07:43:18;98132.99;;;22.47;100.00
56992;BME280;42885;49.754;18.636;2022-09-09T07:45:56;98133.03;;;22.39;100.00
56992;BME280;42885;49.754;18.636;2022-09-09T07:48:23;98140.95;;;22.64;100.00
56992;BME280;42885;49.754;18.636;2022-09-09T07:51:13;98133.69;;;22.81;100.00
56992;BME280;42885;49.754;18.636;2022-09-09T07:53:39;98125.78;;;22.96;100.00
56992;BME280;42885;49.754;18.636;2022-09-09T07:56:12;98125.72;;;23.28;100.00
56992;BME280;42885;49.754;18.636;2022-09-09T07:58:46;98127.41;;;23.29;100.00
56992;BME280;42885;49.754;18.636;2022-09-09T08:01:23;98122.38;;;23.34;100.00
56992;BME280;42885;49.754;18.636;2022-09-09T08:03:59;98127.06;;;23.04;100.00
56992;BME280;42885;49.754;18.636;2022-09-09T08:06:34;98123.91;;;23.51;100.00
56992;BME280;42885;49.754;18.636;2022-09-09T08:09:06;98119.36;;;23.56;100.00
56992;BME280;42885;49.754;18.636;2022-09-09T08:11:39;98115.99;;;23.58;100.00
56992;BME280;42885;49.754;18.636;2022-09-09T08:14:11;98120.79;;;23.97;100.00
56992;BME280;42885;49.754;18.636;2022-09-09T08:16:45;98128.80;;;23.82;100.00
56992;BME280;42885;49.754;18.636;2022-09-09T08:19:18;98133.21;;;23.28;100.00
56992;BME280;42885;49.754;18.636;2022-09-09T08:21:49;98138.14;;;23.44;100.00
56992;BME280;42885;49.754;18.636;2022-09-09T08:24:20;98143.22;;;23.34;100.00
56992;BME280;42885;49.754;18.636;2022-09-09T08:26:53;98140.90;;;23.27;100.00
56992;BME280;42885;49.754;18.636;2022-09-09T08:29:25;98139.47;;;23.44;100.00
56992;BME280;42885;49.754;18.636;2022-09-09T08:31:58;98137.17;;;24.32;100.00
56992;BME280;42885;49.754;18.636;2022-09-09T08:34:30;98141.01;;;23.42;100.00
56992;BME280;42885;49.754;18.636;2022-09-09T08:37:03;98133.27;;;23.47;100.00
56992;BME280;42885;49.754;18.636;2022-09-09T08:39:35;98135.70;;;23.57;100.00
56992;BME280;42885;49.754;18.636;2022-09-09T08:42:43;98131.95;;;24.05;100.00
56992;BME280;42885;49.754;18.636;2022-09-09T08:45:21;98127.64;;;23.81;100.00
56992;BME280;42885;49.754;18.636;2022-09-09T08:50:43;98121.16;;;23.60;100.00
56992;BME280;42885;49.754;18.636;2022-09-09T08:53:27;98123.23;;;23.26;100.00
56992;BME280;42885;49.754;18.636;2022-09-09T08:56:02;98122.38;;;23.06;100.00
56992;BME280;42885;49.754;18.636;2022-09-09T08:58:55;98112.69;;;24.10;100.00
56992;BME280;42885;49.754;18.636;2022-09-09T09:01:43;98112.28;;;23.63;100.00
56992;BME280;42885;49.754;18.636;2022-09-09T09:04:56;98112.27;;;23.83;100.00
56992;BME280;42885;49.754;18.636;2022-09-09T09:07:41;98106.75;;;24.44;100.00
56992;BME280;42885;49.754;18.636;2022-09-09T09:10:33;98104.21;;;24.47;95.81
56992;BME280;42885;49.754;18.636;2022-09-09T09:13:03;98107.09;;;24.56;100.00
56992;BME280;42885;49.754;18.636;2022-09-09T09:15:36;98103.72;;;24.47;100.00
56992;BME280;42885;49.754;18.636;2022-09-09T09:18:10;98103.75;;;24.32;100.00
56992;BME280;42885;49.754;18.636;2022-09-09T09:20:58;98105.73;;;24.86;100.00
56992;BME280;42885;49.754;18.636;2022-09-09T09:23:33;98100.59;;;25.28;100.00
56992;BME280;42885;49.754;18.636;2022-09-09T09:26:07;98090.65;;;25.73;100.00
56992;BME280;42885;49.754;18.636;2022-09-09T09:28:41;98089.88;;;25.07;97.29
56992;BME280;42885;49.754;18.636;2022-09-09T09:31:14;98097.20;;;24.87;100.00
56992;BME280;42885;49.754;18.636;2022-09-09T09:33:49;98096.70;;;24.72;99.07
56992;BME280;42885;49.754;18.636;2022-09-09T09:36:41;98101.09;;;25.17;100.00
56992;BME280;42885;49.754;18.636;2022-09-09T09:39:30;98104.23;;;25.53;98.20
56992;BME280;42885;49.754;18.636;2022-09-09T09:42:14;98108.88;;;25.55;98.27
56992;BME280;42885;49.754;18.636;2022-09-09T09:44:48;98108.23;;;25.32;100.00
56992;BME280;42885;49.754;18.636;2022-09-09T09:47:22;98110.92;;;24.99;86.77
56992;BME280;42885;49.754;18.636;2022-09-09T09:49:59;98118.23;;;25.34;98.40
56992;BME280;42885;49.754;18.636;2022-09-09T09:52:33;98127.11;;;25.23;91.87
56992;BME280;42885;49.754;18.636;2022-09-09T09:55:12;98127.54;;;25.05;89.39
56992;BME280;42885;49.754;18.636;2022-09-09T09:57:40;98136.28;;;25.79;88.04
56992;BME280;42885;49.754;18.636;2022-09-09T10:00:20;98135.73;;;25.91;89.79
56992;BME280;42885;49.754;18.636;2022-09-09T10:02:53;98139.84;;;26.33;75.47
56992;BME280;42885;49.754;18.636;2022-09-09T10:05:29;98139.84;;;26.33;75.47
56992;BME280;42885;49.754;18.636;2022-09-09T10:08:11;98157.80;;;25.93;81.15
56992;BME280;42885;49.754;18.636;2022-09-09T10:11:02;98148.14;;;26.27;88.16
56992;BME280;42885;49.754;18.636;2022-09-09T10:13:46;98134.83;;;26.12;79.64
56992;BME280;42885;49.754;18.636;2022-09-09T10:16:35;98128.95;;;26.72;73.87
56992;BME280;42885;49.754;18.636;2022-09-09T10:22:04;98136.08;;;24.94;87.71
56992;BME280;42885;49.754;18.636;2022-09-09T10:28:10;98133.86;;;25.41;79.68
56992;BME280;42885;49.754;18.636;2022-09-09T10:30:22;98143.73;;;25.84;89.75
56992;BME280;42885;49.754;18.636;2022-09-09T10:38:30;98139.46;;;26.43;84.33
56992;BME280;42885;49.754;18.636;2022-09-09T10:44:12;98143.55;;;25.09;80.10
56992;BME280;42885;49.754;18.636;2022-09-09T10:52:31;98137.50;;;25.66;70.76
56992;BME280;42885;49.754;18.636;2022-09-09T10:55:19;98127.17;;;26.37;72.40
56992;BME280;42885;49.754;18.636;2022-09-09T10:57:54;98130.66;;;25.74;78.61
56992;BME280;42885;49.754;18.636;2022-09-09T11:00:24;98127.52;;;24.94;87.59
56992;BME280;42885;49.754;18.636;2022-09-09T11:03:01;98127.69;;;26.08;74.54
56992;BME280;42885;49.754;18.636;2022-09-09T11:05:32;98124.77;;;27.12;62.81
56992;BME280;42885;49.754;18.636;2022-09-09T11:08:28;98126.91;;;26.99;66.95
56992;BME280;42885;49.754;18.636;2022-09-09T11:10:44;98135.84;;;26.39;62.15
56992;BME280;42885;49.754;18.636;2022-09-09T11:16:55;98135.23;;;26.69;68.42
56992;BME280;42885;49.754;18.636;2022-09-09T11:40:36;98135.94;;;28.10;54.47
56992;BME280;42885;49.754;18.636;2022-09-09T11:56:45;98140.09;;;26.62;66.12
56992;BME280;42885;49.754;18.636;2022-09-09T12:00:27;98137.88;;;27.17;68.64
56992;BME280;42885;49.754;18.636;2022-09-09T12:02:52;98139.44;;;26.60;73.08
56992;BME280;42885;49.754;18.636;2022-09-09T12:13:06;98151.06;;;28.90;55.07
56992;BME280;42885;49.754;18.636;2022-09-09T12:16:26;98151.16;;;29.25;56.35
56992;BME280;42885;49.754;18.636;2022-09-09T12:27:20;98145.67;;;28.31;52.58
56992;BME280;42885;49.754;18.636;2022-09-09T13:14:03;98125.30;;;28.78;51.45
56992;BME280;42885;49.754;18.636;2022-09-09T13:20:23;98123.93;;;29.65;46.05
56992;BME280;42885;49.754;18.636;2022-09-09T13:22:55;98116.33;;;30.16;43.02
56992;BME280;42885;49.754;18.636;2022-09-09T13:25:32;98111.45;;;29.46;46.48
56992;BME280;42885;49.754;18.636;2022-09-09T13:29:31;98112.24;;;28.29;48.57
56992;BME280;42885;49.754;18.636;2022-09-09T13:37:00;98114.38;;;27.60;49.99
56992;BME280;42885;49.754;18.636;2022-09-09T13:58:48;98092.65;;;29.83;40.99
56992;BME280;42885;49.754;18.636;2022-09-09T14:02:35;98073.30;;;30.12;43.23
56992;BME280;42885;49.754;18.636;2022-09-09T14:09:45;98075.88;;;28.82;43.37
56992;BME280;42885;49.754;18.636;2022-09-09T14:12:53;98070.81;;;28.99;45.94
56992;BME280;42885;49.754;18.636;2022-09-09T14:16:01;98059.27;;;29.33;43.54
56992;BME280;42885;49.754;18.636;2022-09-09T14:18:35;98052.64;;;30.55;40.22
56992;BME280;42885;49.754;18.636;2022-09-09T14:21:12;98053.92;;;30.83;41.07
56992;BME280;42885;49.754;18.636;2022-09-09T14:27:27;98044.47;;;31.25;39.28
56992;BME280;42885;49.754;18.636;2022-09-09T14:36:26;98062.20;;;29.32;45.09
56992;BME280;42885;49.754;18.636;2022-09-09T14:38:48;98055.57;;;28.86;48.82
56992;BME280;42885;49.754;18.636;2022-09-09T14:41:52;98051.81;;;28.25;51.33
56992;BME280;42885;49.754;18.636;2022-09-09T14:45:12;98056.58;;;27.53;53.73
56992;BME280;42885;49.754;18.636;2022-09-09T14:48:30;98061.19;;;28.62;51.54
56992;BME280;42885;49.754;18.636;2022-09-09T15:23:00;98079.30;;;25.20;78.33
56992;BME280;42885;49.754;18.636;2022-09-09T15:25:31;98078.02;;;25.05;70.56
56992;BME280;42885;49.754;18.636;2022-09-09T15:28:02;98072.66;;;25.05;72.56
56992;BME280;42885;49.754;18.636;2022-09-09T15:30:33;98078.59;;;25.00;76.78
56992;BME280;42885;49.754;18.636;2022-09-09T15:33:09;98079.16;;;24.59;81.84
56992;BME280;42885;49.754;18.636;2022-09-09T15:35:40;98072.14;;;24.84;76.48
56992;BME280;42885;49.754;18.636;2022-09-09T15:38:12;98073.45;;;24.47;84.91
56992;BME280;42885;49.754;18.636;2022-09-09T15:40:43;98070.81;;;24.32;84.98
56992;BME280;42885;49.754;18.636;2022-09-09T15:43:14;98064.39;;;24.63;78.82
56992;BME280;42885;49.754;18.636;2022-09-09T15:45:46;98061.33;;;24.66;76.56
56992;BME280;42885;49.754;18.636;2022-09-09T15:48:18;98062.63;;;24.70;82.88
56992;BME280;42885;49.754;18.636;2022-09-09T15:51:00;98061.59;;;24.35;81.56
56992;BME280;42885;49.754;18.636;2022-09-09T15:53:26;98062.25;;;24.06;91.08
56992;BME280;42885;49.754;18.636;2022-09-09T15:55:57;98059.31;;;24.42;81.77
56992;BME280;42885;49.754;18.636;2022-09-09T15:58:30;98059.84;;;24.42;83.66
56992;BME280;42885;49.754;18.636;2022-09-09T16:01:09;98067.30;;;24.46;81.33
56992;BME280;42885;49.754;18.636;2022-09-09T16:03:42;98064.41;;;24.37;84.23
56992;BME280;42885;49.754;18.636;2022-09-09T16:06:16;98062.73;;;24.36;83.66
56992;BME280;42885;49.754;18.636;2022-09-09T16:08:49;98056.81;;;24.30;81.60
56992;BME280;42885;49.754;18.636;2022-09-09T16:11:22;98053.92;;;24.21;87.84
56992;BME280;42885;49.754;18.636;2022-09-09T16:13:55;98057.92;;;24.05;90.60
56992;BME280;42885;49.754;18.636;2022-09-09T16:16:28;98057.53;;;23.93;92.60
56992;BME280;42885;49.754;18.636;2022-09-09T16:19:03;98059.59;;;23.72;93.98
56992;BME280;42885;49.754;18.636;2022-09-09T16:21:42;98060.46;;;23.69;96.30
56992;BME280;42885;49.754;18.636;2022-09-09T16:24:10;98064.47;;;23.69;91.91
56992;BME280;42885;49.754;18.636;2022-09-09T16:26:46;98056.98;;;23.49;97.94
56992;BME280;42885;49.754;18.636;2022-09-09T16:29:17;98055.95;;;23.54;94.40
56992;BME280;42885;49.754;18.636;2022-09-09T16:31:49;98053.53;;;23.44;96.99
56992;BME280;42885;49.754;18.636;2022-09-09T16:34:21;98057.91;;;23.41;97.80
56992;BME280;42885;49.754;18.636;2022-09-09T16:37:00;98053.66;;;23.23;100.00
56992;BME280;42885;49.754;18.636;2022-09-09T16:39:53;98056.23;;;23.17;100.00
56992;BME280;42885;49.754;18.636;2022-09-09T16:42:24;98055.62;;;22.87;100.00
56992;BME280;42885;49.754;18.636;2022-09-09T17:44:52;98093.53;;;21.61;100.00
56992;BME280;42885;49.754;18.636;2022-09-09T18:17:29;98117.29;;;20.84;100.00
56992;BME280;42885;49.754;18.636;2022-09-09T18:20:02;98119.00;;;20.62;100.00
56992;BME280;42885;49.754;18.636;2022-09-09T18:22:33;98124.11;;;20.47;100.00
56992;BME280;42885;49.754;18.636;2022-09-09T18:25:06;98123.89;;;20.75;100.00
56992;BME280;42885;49.754;18.636;2022-09-09T18:27:38;98119.82;;;21.06;100.00
56992;BME280;42885;49.754;18.636;2022-09-09T18:30:16;98117.08;;;20.81;100.00
56992;BME280;42885;49.754;18.636;2022-09-09T18:32:53;98108.84;;;21.05;100.00
56992;BME280;42885;49.754;18.636;2022-09-09T18:35:27;98106.73;;;20.66;100.00
56992;BME280;42885;49.754;18.636;2022-09-09T18:38:05;98101.39;;;20.61;100.00
56992;BME280;42885;49.754;18.636;2022-09-09T18:40:39;98103.89;;;20.63;100.00
56992;BME280;42885;49.754;18.636;2022-09-09T18:43:09;98100.48;;;20.83;100.00
56992;BME280;42885;49.754;18.636;2022-09-09T18:45:43;98106.77;;;20.82;100.00
56992;BME280;42885;49.754;18.636;2022-09-09T18:48:15;98115.95;;;20.88;100.00
56992;BME280;42885;49.754;18.636;2022-09-09T18:50:53;98116.39;;;20.28;100.00
56992;BME280;42885;49.754;18.636;2022-09-09T18:53:24;98116.31;;;20.50;100.00
56992;BME280;42885;49.754;18.636;2022-09-09T18:56:00;98116.45;;;20.83;100.00